createdAt,value
2018-08-03T07:28:35.777Z,10.00
2018-08-03T07:29:35.746Z,10.00
2018-08-03T07:30:35.785Z,10.00
2018-08-03T07:31:35.759Z,10.00
2018-08-03T07:32:35.759Z,10.00
2018-08-03T07:33:35.772Z,10.00
2018-08-03T07:34:35.846Z,10.00
2018-08-03T07:35:35.846Z,10.00
2018-08-03T07:36:35.817Z,10.00
2018-08-03T07:37:35.834Z,10.00
2018-08-03T07:38:35.843Z,10.00
2018-08-03T07:39:35.863Z,10.00
2018-08-03T07:40:35.876Z,10.00
2018-08-03T07:41:35.887Z,10.00
2018-08-03T07:42:35.936Z,10.00
2018-08-03T07:43:36.071Z,10.00
2018-08-03T07:44:35.955Z,10.00
2018-08-03T07:45:35.947Z,10.00
2018-08-03T07:46:35.975Z,10.00
2018-08-03T07:47:36.094Z,10.00
2018-08-03T07:48:35.996Z,10.00
2018-08-03T07:49:36.009Z,10.00
2018-08-03T07:50:36.029Z,10.00
2018-08-03T07:51:36.034Z,10.00
2018-08-03T07:52:36.096Z,10.00
2018-08-03T07:53:36.083Z,10.00
2018-08-03T07:54:36.086Z,10.00
2018-08-03T07:55:36.102Z,10.00
2018-08-03T07:56:36.117Z,10.00
2018-08-03T07:57:36.142Z,10.00
2018-08-03T07:58:36.154Z,10.00
2018-08-03T07:59:36.145Z,10.00
2018-08-03T08:00:36.166Z,10.00
2018-08-03T08:01:36.184Z,10.00
2018-08-03T08:02:36.187Z,10.00
2018-08-03T08:03:36.205Z,10.00
2018-08-03T08:04:36.224Z,10.00
2018-08-03T08:05:36.237Z,10.00
2018-08-03T08:06:36.247Z,10.00
2018-08-03T08:07:36.267Z,10.00
2018-08-03T08:08:36.294Z,10.00
2018-08-03T08:09:36.325Z,10.00
2018-08-03T08:10:36.315Z,10.00
2018-08-03T08:11:36.317Z,10.00
2018-08-03T08:12:36.341Z,10.00
2018-08-03T08:13:36.379Z,10.00
2018-08-03T08:14:36.360Z,10.00
2018-08-03T08:15:36.436Z,10.00
2018-08-03T08:16:36.395Z,10.00
2018-08-03T08:17:36.412Z,10.00
2018-08-03T08:18:36.420Z,10.00
2018-08-03T08:19:36.434Z,10.00
2018-08-03T08:20:36.473Z,10.00
2018-08-03T08:21:36.465Z,10.00
2018-08-03T08:22:36.493Z,10.00
2018-08-03T08:23:36.487Z,10.00
2018-08-03T08:24:36.519Z,10.00
2018-08-03T08:25:36.529Z,10.00
2018-08-03T08:26:36.539Z,10.00
2018-08-03T08:27:36.550Z,10.00
2018-08-03T08:28:36.561Z,10.00
2018-08-03T08:29:36.589Z,10.00
2018-08-03T08:30:36.597Z,10.00
2018-08-03T08:31:36.613Z,10.00
2018-08-03T08:32:36.623Z,10.00
2018-08-03T08:33:36.655Z,10.00
2018-08-03T08:34:36.644Z,10.00
2018-08-03T08:35:36.693Z,10.00
2018-08-03T08:36:36.722Z,10.00
2018-08-03T08:37:36.703Z,10.00
2018-08-03T08:38:36.703Z,10.00
2018-08-03T08:39:36.724Z,10.00
2018-08-03T08:40:36.757Z,10.00
2018-08-03T08:41:36.755Z,10.00
2018-08-03T08:42:36.765Z,10.00
2018-08-03T08:43:36.821Z,10.00
2018-08-03T08:44:36.793Z,10.00
2018-08-03T08:45:36.806Z,10.00
2018-08-03T08:46:36.823Z,10.00
2018-08-03T08:47:36.840Z,10.00
2018-08-03T08:48:36.873Z,10.00
2018-08-03T08:49:36.862Z,10.00
2018-08-03T08:50:36.879Z,10.00
2018-08-03T08:51:36.896Z,10.00
2018-08-03T08:52:36.931Z,10.00
2018-08-03T08:53:36.919Z,10.00
2018-08-03T08:54:36.971Z,10.00
2018-08-03T08:55:36.955Z,10.00
2018-08-03T08:56:36.996Z,10.00
2018-08-03T08:57:36.980Z,10.00
2018-08-03T08:58:37.001Z,10.00
2018-08-03T08:59:37.045Z,10.00
2018-08-03T09:00:37.023Z,10.00
2018-08-03T09:01:37.039Z,10.00
2018-08-03T09:02:37.065Z,10.00
2018-08-03T09:03:37.072Z,10.00
2018-08-03T09:04:37.083Z,10.00
2018-08-03T09:05:37.095Z,10.00
2018-08-03T09:06:37.117Z,10.00
2018-08-03T09:07:37.343Z,10.00
2018-08-03T09:08:37.160Z,10.00
2018-08-03T09:09:37.164Z,10.00
2018-08-03T09:10:37.167Z,10.00
2018-08-03T09:11:37.198Z,10.00
2018-08-03T09:12:37.204Z,10.00
2018-08-03T09:13:37.213Z,10.00
2018-08-03T09:14:37.223Z,10.00
2018-08-03T09:15:37.250Z,10.00
2018-08-03T09:16:37.258Z,10.00
2018-08-03T09:17:37.271Z,10.00
2018-08-03T09:18:37.309Z,10.00
2018-08-03T09:19:37.299Z,10.00
2018-08-03T09:20:37.327Z,10.00
2018-08-03T09:21:37.353Z,10.00
2018-08-03T09:22:37.340Z,10.00
2018-08-03T09:23:37.364Z,10.00
2018-08-03T09:24:37.410Z,10.00
2018-08-03T09:25:37.395Z,10.00
2018-08-03T09:26:37.408Z,10.00
2018-08-03T09:27:37.499Z,10.00
2018-08-03T09:28:37.463Z,10.00
2018-08-03T09:29:37.444Z,10.00
2018-08-03T09:30:37.485Z,10.00
2018-08-03T09:31:37.494Z,10.00
2018-08-03T09:32:37.507Z,10.00
2018-08-03T09:33:37.516Z,10.00
2018-08-03T09:34:37.546Z,10.00
2018-08-03T09:35:37.538Z,10.00
2018-08-03T09:36:37.598Z,10.00
2018-08-03T09:37:37.559Z,10.00
2018-08-03T09:38:37.575Z,10.00
2018-08-03T09:39:37.589Z,10.00
2018-08-03T09:40:37.612Z,10.00
2018-08-03T09:41:37.637Z,10.00
2018-08-03T09:42:37.642Z,10.00
2018-08-03T09:43:37.651Z,10.00
2018-08-03T09:44:37.674Z,10.00
2018-08-03T09:45:37.676Z,10.00
2018-08-03T09:46:37.699Z,10.00
2018-08-03T09:47:37.712Z,10.00
2018-08-03T09:48:37.741Z,10.00
2018-08-03T09:49:37.742Z,10.00
2018-08-03T09:50:37.763Z,10.00
2018-08-03T09:51:37.784Z,10.00
2018-08-03T09:52:37.826Z,10.00
2018-08-03T09:53:37.933Z,10.00
2018-08-03T09:54:37.812Z,10.00
2018-08-03T09:55:37.835Z,10.00
2018-08-03T09:56:37.841Z,10.00
2018-08-03T09:57:37.862Z,10.00
2018-08-03T09:58:37.879Z,10.00
2018-08-03T09:59:37.899Z,10.00
2018-08-03T10:00:37.910Z,10.00
2018-08-03T10:01:37.922Z,10.00
2018-08-03T10:02:37.931Z,10.00
2018-08-03T10:03:37.953Z,10.00
2018-08-03T10:04:37.960Z,10.00
2018-08-03T10:05:37.993Z,10.00
2018-08-03T10:06:37.984Z,10.00
2018-08-03T10:07:38.013Z,10.00
2018-08-03T10:08:38.019Z,10.00
2018-08-03T10:09:38.031Z,10.00
2018-08-03T10:10:38.045Z,10.00
2018-08-03T10:11:38.060Z,10.00
2018-08-03T10:12:38.072Z,10.00
2018-08-03T10:13:38.091Z,10.00
2018-08-03T10:14:38.126Z,10.00
2018-08-03T10:15:38.166Z,10.00
2018-08-03T10:16:38.136Z,10.00
2018-08-03T10:17:38.149Z,10.00
2018-08-03T10:18:38.170Z,10.00
2018-08-03T10:19:38.180Z,10.00
2018-08-03T10:20:38.197Z,10.00
2018-08-03T10:21:38.203Z,10.00
2018-08-03T10:22:38.221Z,10.00
2018-08-03T10:23:38.237Z,10.00
2018-08-03T10:24:38.252Z,10.00
2018-08-03T10:25:38.281Z,10.00
2018-08-03T10:26:38.282Z,10.00
2018-08-03T10:27:38.293Z,10.00
2018-08-03T10:28:38.310Z,10.00
2018-08-03T10:29:38.363Z,10.00
2018-08-03T10:30:38.346Z,10.00
2018-08-03T10:31:38.350Z,10.00
2018-08-03T10:32:38.366Z,10.00
2018-08-03T10:33:38.388Z,10.00
2018-08-03T10:34:38.402Z,10.00
2018-08-03T10:35:38.413Z,10.00
2018-08-03T10:36:38.435Z,10.00
2018-08-03T10:37:38.443Z,10.00
2018-08-03T10:38:38.467Z,10.00
2018-08-03T10:39:38.472Z,10.00
2018-08-03T10:40:38.495Z,10.00
2018-08-03T10:41:38.501Z,10.00
2018-08-03T10:42:38.520Z,10.00
2018-08-03T10:43:38.549Z,10.00
2018-08-03T10:44:38.550Z,10.00
2018-08-03T10:45:38.564Z,10.00
2018-08-03T10:46:38.582Z,10.00
2018-08-03T10:47:38.594Z,10.00
2018-08-03T10:48:38.617Z,10.00
2018-08-03T10:49:38.644Z,10.00
2018-08-03T10:50:38.635Z,10.00
2018-08-03T10:51:38.653Z,10.00
2018-08-03T10:52:38.668Z,10.00
2018-08-03T10:53:38.684Z,10.00
2018-08-03T10:54:38.697Z,10.00
2018-08-03T10:55:38.724Z,10.00
2018-08-03T10:56:38.744Z,10.00
2018-08-03T10:57:38.744Z,10.00
2018-08-03T10:58:38.756Z,10.00
2018-08-03T10:59:38.774Z,10.00
2018-08-03T11:00:38.786Z,10.00
2018-08-03T11:01:38.834Z,10.00
2018-08-03T11:02:38.817Z,10.00
2018-08-03T11:03:38.842Z,10.00
2018-08-03T11:04:38.856Z,10.00
2018-08-03T11:05:38.864Z,10.00
2018-08-03T11:06:38.888Z,10.00
2018-08-03T11:07:38.941Z,10.00
2018-08-03T11:08:38.912Z,10.00
2018-08-03T11:09:38.927Z,10.00
2018-08-03T11:10:38.945Z,10.00
2018-08-03T11:11:38.977Z,10.00
2018-08-03T11:12:38.973Z,10.00
2018-08-03T11:13:39.008Z,10.00
2018-08-03T11:14:39.001Z,10.00
2018-08-03T11:15:39.014Z,10.00
2018-08-03T11:16:39.024Z,10.00
2018-08-03T11:17:39.050Z,10.00
2018-08-03T11:18:39.061Z,10.00
2018-08-03T11:19:39.076Z,10.00
2018-08-03T11:20:39.089Z,10.00
2018-08-03T11:21:39.107Z,10.00
2018-08-03T11:22:39.116Z,10.00
2018-08-03T11:23:39.147Z,10.00
2018-08-03T11:24:39.156Z,10.00
2018-08-03T11:25:39.169Z,10.00
2018-08-03T11:26:39.181Z,10.00
2018-08-03T11:27:39.193Z,10.00
2018-08-03T11:28:39.246Z,10.00
2018-08-03T11:29:39.293Z,10.00
2018-08-03T11:30:39.239Z,10.00
2018-08-03T11:31:39.258Z,10.00
2018-08-03T11:32:39.272Z,10.00
2018-08-03T11:33:39.283Z,10.00
2018-08-03T11:34:39.306Z,10.00
2018-08-03T11:35:39.314Z,10.00
2018-08-03T11:36:39.346Z,10.00
2018-08-03T11:37:39.352Z,10.00
2018-08-03T11:38:39.360Z,10.00
2018-08-03T11:39:39.390Z,10.00
2018-08-03T11:40:39.395Z,10.00
2018-08-03T11:41:39.407Z,10.00
2018-08-03T11:42:39.445Z,10.00
2018-08-03T11:43:39.440Z,10.00
2018-08-03T11:44:39.454Z,10.00
2018-08-03T11:45:39.470Z,10.00
2018-08-03T11:46:39.490Z,10.00
2018-08-03T11:47:39.504Z,10.00
2018-08-03T11:48:39.530Z,10.00
2018-08-03T11:49:39.577Z,10.00
2018-08-03T11:50:39.543Z,10.00
2018-08-03T11:51:39.559Z,10.00
2018-08-03T11:52:39.577Z,10.00
2018-08-03T11:53:39.596Z,10.00
2018-08-03T11:54:39.615Z,10.00
2018-08-03T11:55:39.639Z,10.00
2018-08-03T11:56:39.646Z,10.00
2018-08-03T11:57:39.654Z,10.00
2018-08-03T11:58:39.673Z,10.00
2018-08-03T11:59:39.684Z,10.00
2018-08-03T12:00:39.721Z,10.00
2018-08-03T12:01:39.753Z,10.00
2018-08-03T12:02:39.732Z,10.00
2018-08-03T12:03:39.766Z,10.00
2018-08-03T12:04:39.762Z,10.00
2018-08-03T12:05:39.775Z,10.00
2018-08-03T12:06:39.793Z,10.00
2018-08-03T12:07:39.809Z,10.00
2018-08-03T12:08:39.824Z,10.00
2018-08-03T12:09:39.841Z,10.00
2018-08-03T12:10:39.863Z,10.00
2018-08-03T12:11:39.877Z,10.00
2018-08-03T12:12:39.891Z,10.00
2018-08-03T12:13:39.904Z,10.00
2018-08-03T12:14:39.918Z,10.00
2018-08-03T12:15:39.932Z,10.00
2018-08-03T12:16:39.949Z,10.00
2018-08-03T12:17:39.974Z,10.00
2018-08-03T12:18:39.986Z,10.00
2018-08-03T12:19:39.994Z,10.00
2018-08-03T12:20:40.018Z,10.00
2018-08-03T12:21:40.027Z,10.00
2018-08-03T12:22:40.044Z,10.00
2018-08-03T12:23:40.061Z,10.00
2018-08-03T12:24:40.071Z,10.00
2018-08-03T12:25:40.090Z,10.00
2018-08-03T12:26:40.111Z,10.00
2018-08-03T12:27:40.123Z,10.00
2018-08-03T12:28:40.178Z,10.00
2018-08-03T12:29:40.153Z,10.00
2018-08-03T12:30:40.173Z,10.00
2018-08-03T12:31:40.289Z,10.00
2018-08-03T12:32:40.212Z,10.00
2018-08-03T12:33:40.214Z,10.00
2018-08-03T12:34:40.234Z,10.00
2018-08-03T12:35:40.245Z,10.00
2018-08-03T12:36:40.264Z,10.00
2018-08-03T12:37:40.280Z,10.00
2018-08-03T12:38:40.294Z,10.00
2018-08-03T12:39:40.309Z,10.00
2018-08-03T12:40:40.328Z,10.00
2018-08-03T12:41:40.344Z,10.00
2018-08-03T12:42:40.364Z,10.00
2018-08-03T12:43:40.374Z,10.00
2018-08-03T12:44:40.388Z,10.00
2018-08-03T12:45:40.406Z,10.00
2018-08-03T12:46:40.418Z,10.00
2018-08-03T12:47:40.438Z,10.00
2018-08-03T12:48:40.450Z,10.00
2018-08-03T12:49:40.468Z,10.00
2018-08-03T12:50:40.548Z,10.00
2018-08-03T12:51:40.523Z,10.00
2018-08-03T12:52:40.563Z,10.00
2018-08-03T12:53:40.533Z,10.00
2018-08-03T12:54:40.546Z,10.00
2018-08-03T12:55:40.566Z,10.00
2018-08-03T12:56:40.696Z,10.00
2018-08-03T12:57:40.601Z,10.00
2018-08-03T12:58:40.631Z,10.00
2018-08-03T12:59:40.739Z,10.00
2018-08-03T13:00:40.648Z,10.00
2018-08-03T13:01:40.665Z,10.00
2018-08-03T13:02:40.718Z,10.00
2018-08-03T13:03:40.691Z,10.00
2018-08-03T13:04:40.709Z,10.00
2018-08-03T13:05:40.724Z,10.00
2018-08-03T13:06:40.752Z,10.00
2018-08-03T13:07:40.837Z,10.00
2018-08-03T13:08:40.772Z,10.00
2018-08-03T13:09:40.840Z,10.00
2018-08-03T13:10:40.811Z,10.00
2018-08-03T13:11:40.827Z,10.00
2018-08-03T13:12:40.834Z,10.00
2018-08-03T13:13:40.854Z,10.00
2018-08-03T13:14:40.866Z,10.00
2018-08-03T13:15:40.884Z,10.00
2018-08-03T13:16:40.896Z,10.00
2018-08-03T13:17:40.943Z,10.00
2018-08-03T13:18:40.931Z,10.00
2018-08-03T13:19:40.952Z,10.00
2018-08-03T13:20:40.973Z,10.00
2018-08-03T13:21:40.983Z,10.00
2018-08-03T13:22:40.994Z,10.00
2018-08-03T13:23:37.078Z,10.00
2018-08-03T13:25:48.740Z,698.00
2018-08-03T13:26:48.722Z,715.00
2018-08-03T13:28:42.300Z,701.00
2018-08-03T13:29:42.287Z,714.00
2018-08-03T13:31:35.815Z,730.00
2018-08-03T13:32:35.803Z,724.00
2018-08-03T13:34:29.338Z,711.00
2018-08-03T13:35:29.328Z,693.00
2018-08-03T13:37:22.844Z,717.00
2018-08-03T13:38:22.853Z,718.00
2018-08-03T13:40:16.403Z,700.00
2018-08-03T13:41:16.369Z,708.00
2018-08-03T13:43:09.877Z,716.00
2018-08-03T13:44:09.922Z,706.00
2018-08-03T13:46:03.395Z,691.00
2018-08-03T13:47:03.404Z,696.00
2018-08-03T13:48:56.961Z,716.00
2018-08-03T13:49:56.951Z,719.00
2018-08-03T13:51:50.451Z,692.00
2018-08-03T13:52:50.461Z,701.00
2018-08-03T13:54:43.993Z,710.00
2018-08-03T13:55:43.979Z,710.00
2018-08-03T13:57:37.534Z,711.00
2018-08-03T13:58:37.490Z,698.00
2018-08-03T14:00:31.018Z,690.00
2018-08-03T14:01:31.003Z,687.00
2018-08-03T14:03:24.502Z,705.00
2018-08-03T14:04:24.560Z,685.00
2018-08-03T14:06:18.029Z,705.00
2018-08-03T14:07:18.019Z,711.00
2018-08-03T14:09:11.543Z,713.00
2018-08-03T14:10:11.531Z,684.00
2018-08-03T14:12:05.083Z,697.00
2018-08-03T14:13:05.049Z,697.00
2018-08-03T14:14:58.575Z,703.00
2018-08-03T14:15:58.564Z,697.00
2018-08-03T14:17:52.072Z,697.00
2018-08-03T14:18:52.078Z,711.00
2018-08-03T14:20:45.639Z,694.00
2018-08-03T14:21:45.597Z,697.00
2018-08-03T14:23:39.154Z,717.00
2018-08-03T14:24:39.109Z,689.00
2018-08-03T14:26:32.629Z,716.00
2018-08-03T14:27:32.636Z,718.00
2018-08-03T14:29:26.155Z,714.00
2018-08-03T14:30:26.145Z,698.00
2018-08-03T14:32:19.671Z,690.00
2018-08-03T14:33:19.692Z,701.00
2018-08-03T14:35:13.200Z,698.00
2018-08-03T14:36:13.182Z,685.00
2018-08-03T14:38:06.769Z,690.00
2018-08-03T14:39:06.700Z,702.00
2018-08-03T14:41:00.214Z,696.00
2018-08-03T14:42:00.211Z,717.00
2018-08-03T14:43:54.743Z,727.00
2018-08-03T14:44:54.742Z,711.00
2018-08-03T14:46:48.230Z,709.00
2018-08-03T14:47:48.240Z,710.00
2018-08-03T14:49:41.776Z,706.00
2018-08-03T14:51:47.557Z,0.00
2018-08-03T14:52:47.573Z,0.00
2018-08-03T14:54:41.093Z,0.00
2018-08-03T14:55:41.080Z,0.00
2018-08-03T14:57:34.576Z,0.00
2018-08-03T14:58:34.593Z,0.00
2018-08-03T15:00:28.109Z,0.00
2018-08-03T15:01:28.094Z,0.00
2018-08-03T15:03:21.614Z,0.00
2018-08-03T15:04:21.607Z,0.00
2018-08-03T15:06:15.154Z,0.00
2018-08-03T15:07:15.256Z,0.00
2018-08-03T15:09:08.664Z,0.00
2018-08-03T15:10:08.654Z,0.00
2018-08-03T15:12:02.167Z,0.00
2018-08-03T15:13:02.180Z,0.00
2018-08-03T15:14:55.716Z,0.00
2018-08-03T15:15:55.693Z,0.00
2018-08-03T15:17:49.190Z,0.00
2018-08-03T15:18:49.199Z,0.00
2018-08-03T15:20:42.758Z,0.00
2018-08-03T15:21:42.741Z,0.00
2018-08-03T15:25:57.191Z,0.00
2018-08-03T15:26:57.109Z,0.00
2018-08-03T15:28:50.461Z,0.00
2018-08-03T15:30:44.879Z,10.00
2018-08-03T15:31:44.874Z,10.00
2018-08-03T15:33:38.187Z,10.00
2018-08-03T15:35:23.300Z,10.00
2018-08-03T15:36:39.118Z,10.00
2018-08-03T15:37:39.108Z,10.00
2018-08-03T15:40:37.347Z,0.00
2018-08-03T15:41:37.333Z,0.00
2018-08-03T15:42:37.350Z,10.00
2018-08-03T15:43:37.370Z,10.00
2018-08-03T15:44:37.388Z,10.00
2018-08-03T15:45:37.399Z,10.00
2018-08-03T15:46:37.416Z,0.00
2018-08-03T15:47:37.433Z,10.00
2018-08-03T15:48:37.450Z,10.00
2018-08-03T15:49:37.486Z,0.00
2018-08-03T15:50:37.501Z,0.00
2018-08-03T15:51:37.502Z,0.00
2018-08-03T15:52:37.526Z,0.00
2018-08-03T15:53:37.537Z,0.00
2018-08-03T15:54:37.550Z,0.00
2018-08-03T15:55:37.566Z,0.00
2018-08-03T15:56:37.597Z,0.00
2018-08-03T15:57:37.599Z,0.00
2018-08-03T15:58:37.622Z,0.00
2018-08-03T15:59:37.635Z,0.00
2018-08-03T16:00:37.658Z,0.00
2018-08-03T16:01:37.690Z,0.00
2018-08-03T16:02:37.689Z,0.00
2018-08-03T16:03:37.703Z,0.00
2018-08-03T16:04:37.724Z,0.00
2018-08-03T16:05:37.757Z,0.00
2018-08-03T16:06:37.802Z,0.00
2018-08-03T16:07:37.778Z,0.00
2018-08-03T16:08:37.787Z,0.00
2018-08-03T16:09:37.806Z,0.00
2018-08-03T16:10:37.823Z,0.00
2018-08-03T16:11:37.841Z,0.00
2018-08-03T16:12:37.858Z,0.00
2018-08-03T16:13:37.882Z,0.00
2018-08-03T16:14:37.897Z,0.00
2018-08-03T16:15:37.910Z,0.00
2018-08-03T16:16:37.927Z,0.00
2018-08-03T16:17:37.939Z,0.00
2018-08-03T16:18:37.960Z,0.00
2018-08-03T16:19:37.980Z,0.00
2018-08-03T16:20:38.032Z,0.00
2018-08-03T16:21:38.011Z,0.00
2018-08-03T16:22:38.023Z,0.00
2018-08-03T16:23:38.043Z,0.00
2018-08-03T16:24:38.085Z,0.00
2018-08-03T16:25:38.125Z,0.00
2018-08-03T16:26:38.091Z,0.00
2018-08-03T16:27:38.113Z,0.00
2018-08-03T16:28:38.125Z,0.00
2018-08-03T16:29:38.145Z,0.00
2018-08-03T16:30:38.163Z,0.00
2018-08-03T16:31:38.195Z,0.00
2018-08-03T16:32:38.225Z,0.00
2018-08-03T16:33:38.214Z,0.00
2018-08-03T16:34:38.227Z,0.00
2018-08-03T16:35:38.246Z,0.00
2018-08-03T16:36:38.262Z,0.00
2018-08-03T16:37:38.279Z,0.00
2018-08-03T16:38:38.295Z,0.00
2018-08-03T16:39:38.315Z,0.00
2018-08-03T16:40:38.329Z,0.00
2018-08-03T16:41:38.349Z,0.00
2018-08-03T16:42:38.370Z,0.00
2018-08-03T16:43:38.382Z,0.00
2018-08-03T16:44:38.395Z,0.00
2018-08-03T16:45:38.422Z,0.00
2018-08-03T16:46:38.452Z,0.00
2018-08-03T16:47:38.449Z,0.00
2018-08-03T16:48:38.464Z,0.00
2018-08-03T16:49:38.492Z,0.00
2018-08-03T16:50:38.500Z,0.00
2018-08-03T16:51:38.523Z,0.00
2018-08-03T16:52:38.537Z,0.00
2018-08-03T16:53:38.553Z,0.00
2018-08-03T16:54:38.566Z,0.00
2018-08-03T16:55:38.616Z,0.00
2018-08-03T16:56:38.614Z,0.00
2018-08-03T16:57:38.617Z,0.00
2018-08-03T16:58:38.643Z,0.00
2018-08-03T16:59:38.668Z,0.00
2018-08-03T17:00:38.681Z,0.00
2018-08-03T17:01:38.687Z,0.00
2018-08-03T17:02:38.705Z,0.00
2018-08-03T17:03:38.722Z,0.00
2018-08-03T17:04:38.737Z,0.00
2018-08-03T17:05:38.758Z,0.00
2018-08-03T17:06:38.772Z,0.00
2018-08-03T17:07:38.801Z,0.00
2018-08-03T17:08:38.806Z,0.00
2018-08-03T17:09:38.822Z,0.00
2018-08-03T17:10:38.855Z,0.00
2018-08-03T17:11:38.889Z,0.00
2018-08-03T17:12:38.879Z,0.00
2018-08-03T17:13:38.916Z,0.00
2018-08-03T17:14:38.914Z,0.00
2018-08-03T17:15:38.922Z,0.00
2018-08-03T17:16:38.967Z,0.00
2018-08-03T17:17:38.972Z,0.00
2018-08-03T17:18:38.984Z,0.00
2018-08-03T17:19:39.005Z,0.00
2018-08-03T17:20:39.043Z,0.00
2018-08-03T17:21:39.032Z,0.00
2018-08-03T17:22:39.051Z,0.00
2018-08-03T17:23:39.061Z,0.00
2018-08-03T17:24:39.077Z,0.00
2018-08-03T17:25:39.096Z,0.00
2018-08-03T17:26:39.120Z,0.00
2018-08-03T17:27:39.132Z,0.00
2018-08-03T17:28:39.150Z,0.00
2018-08-03T17:29:39.168Z,0.00
2018-08-03T17:30:39.185Z,0.00
2018-08-03T17:31:39.207Z,0.00
2018-08-03T17:32:39.242Z,0.00
2018-08-03T17:33:39.248Z,0.00
2018-08-03T17:34:39.247Z,0.00
2018-08-03T17:35:39.291Z,0.00
2018-08-03T17:36:39.301Z,0.00
2018-08-03T17:37:39.298Z,0.00
2018-08-03T17:38:39.316Z,0.00
2018-08-03T17:39:39.325Z,0.00
2018-08-03T17:40:39.353Z,0.00
2018-08-03T17:41:39.357Z,0.00
2018-08-03T17:42:39.519Z,0.00
2018-08-03T17:43:39.391Z,0.00
2018-08-03T17:44:39.420Z,0.00
2018-08-03T17:45:39.472Z,0.00
2018-08-03T17:46:39.446Z,0.00
2018-08-03T17:47:39.463Z,0.00
2018-08-03T17:48:39.477Z,0.00
2018-08-03T17:49:39.490Z,0.00
2018-08-03T17:50:39.503Z,0.00
2018-08-03T17:51:39.515Z,0.00
2018-08-03T17:52:39.537Z,0.00
2018-08-03T17:53:39.564Z,0.00
2018-08-03T17:54:39.581Z,0.00
2018-08-03T17:55:39.588Z,0.00
2018-08-03T17:56:39.607Z,0.00
2018-08-03T17:57:39.617Z,0.00
2018-08-03T17:58:39.633Z,0.00
2018-08-03T17:59:39.647Z,0.00
2018-08-03T18:00:39.669Z,0.00
2018-08-03T18:01:39.682Z,0.00
2018-08-03T18:02:39.705Z,0.00
2018-08-03T18:03:39.721Z,0.00
2018-08-03T18:04:39.752Z,0.00
2018-08-03T18:05:39.755Z,0.00
2018-08-03T18:06:39.772Z,0.00
2018-08-03T18:07:39.829Z,0.00
2018-08-03T18:08:40.084Z,0.00
2018-08-03T18:09:39.828Z,0.00
2018-08-03T18:10:39.893Z,0.00
2018-08-03T18:11:39.881Z,0.00
2018-08-03T18:12:39.882Z,0.00
2018-08-03T18:13:39.918Z,0.00
2018-08-03T18:14:39.921Z,0.00
2018-08-03T18:15:39.933Z,0.00
2018-08-03T18:16:39.964Z,0.00
2018-08-03T18:17:39.964Z,0.00
2018-08-03T18:18:39.985Z,0.00
2018-08-03T18:19:40.005Z,0.00
2018-08-03T18:20:40.018Z,0.00
2018-08-03T18:21:40.065Z,0.00
2018-08-03T18:22:40.056Z,0.00
2018-08-03T18:23:40.077Z,0.00
2018-08-03T18:24:40.086Z,0.00
2018-08-03T18:25:40.105Z,0.00
2018-08-03T18:26:40.117Z,0.00
2018-08-03T18:27:40.192Z,0.00
2018-08-03T18:28:40.207Z,0.00
2018-08-03T18:29:40.179Z,0.00
2018-08-03T18:30:40.186Z,0.00
2018-08-03T18:31:40.209Z,0.00
2018-08-03T18:32:40.226Z,0.00
2018-08-03T18:33:40.333Z,0.00
2018-08-03T18:34:40.302Z,0.00
2018-08-03T18:35:40.273Z,0.00
2018-08-03T18:36:40.291Z,0.00
2018-08-03T18:37:40.309Z,0.00
2018-08-03T18:38:40.329Z,0.00
2018-08-03T18:39:40.343Z,0.00
2018-08-03T18:40:40.383Z,0.00
2018-08-03T18:41:40.378Z,0.00
2018-08-03T18:42:40.403Z,0.00
2018-08-03T18:43:40.423Z,0.00
2018-08-03T18:44:40.438Z,0.00
2018-08-03T18:45:40.450Z,0.00
2018-08-03T18:46:40.515Z,0.00
2018-08-03T18:47:40.482Z,0.00
2018-08-03T18:48:40.508Z,0.00
2018-08-03T18:49:40.524Z,0.00
2018-08-03T18:50:40.538Z,0.00
2018-08-03T18:51:40.554Z,0.00
2018-08-03T18:52:40.569Z,0.00
2018-08-03T18:53:40.591Z,0.00
2018-08-03T18:54:40.606Z,0.00
2018-08-03T18:55:40.641Z,0.00
2018-08-03T18:56:40.645Z,0.00
2018-08-03T18:57:40.811Z,0.00
2018-08-03T18:58:40.679Z,0.00
2018-08-03T18:59:40.695Z,0.00
2018-08-03T19:00:40.714Z,0.00
2018-08-03T19:01:40.729Z,0.00
2018-08-03T19:02:40.745Z,0.00
2018-08-03T19:03:40.765Z,0.00
2018-08-03T19:04:40.781Z,0.00
2018-08-03T19:05:40.801Z,0.00
2018-08-03T19:06:40.815Z,0.00
2018-08-03T19:07:40.862Z,0.00
2018-08-03T19:08:40.856Z,0.00
2018-08-03T19:09:40.871Z,0.00
2018-08-03T19:10:40.889Z,0.00
2018-08-03T19:11:40.903Z,0.00
2018-08-03T19:12:40.916Z,0.00
2018-08-03T19:13:40.943Z,0.00
2018-08-03T19:14:40.956Z,0.00
2018-08-03T19:15:40.991Z,0.00
2018-08-03T19:16:40.987Z,0.00
2018-08-03T19:17:41.044Z,0.00
2018-08-03T19:18:41.028Z,0.00
2018-08-03T19:19:41.042Z,0.00
2018-08-03T19:20:41.064Z,0.00
2018-08-03T19:21:41.157Z,0.00
2018-08-03T19:22:41.102Z,0.00
2018-08-03T19:23:41.111Z,0.00
2018-08-03T19:24:41.128Z,0.00
2018-08-03T19:25:41.141Z,0.00
2018-08-03T19:26:41.163Z,0.00
2018-08-03T19:27:41.178Z,0.00
2018-08-03T19:28:41.193Z,0.00
2018-08-03T19:29:41.236Z,0.00
2018-08-03T19:30:41.249Z,0.00
2018-08-03T19:31:41.247Z,0.00
2018-08-03T19:32:41.267Z,0.00
2018-08-03T19:33:41.283Z,0.00
2018-08-03T19:34:41.308Z,0.00
2018-08-03T19:35:41.328Z,0.00
2018-08-03T19:36:41.334Z,0.00
2018-08-03T19:37:41.386Z,0.00
2018-08-03T19:38:41.373Z,0.00
2018-08-03T19:39:41.390Z,0.00
2018-08-03T19:40:41.399Z,0.00
2018-08-03T19:41:41.416Z,0.00
2018-08-03T19:42:41.442Z,0.00
2018-08-03T19:43:41.454Z,0.00
2018-08-03T19:44:41.473Z,0.00
2018-08-03T19:45:41.485Z,0.00
2018-08-03T19:46:41.527Z,0.00
2018-08-03T19:47:41.520Z,0.00
2018-08-03T19:48:41.536Z,0.00
2018-08-03T19:49:41.559Z,0.00
2018-08-03T19:50:41.573Z,0.00
2018-08-03T19:51:41.594Z,0.00
2018-08-03T19:52:41.649Z,0.00
2018-08-03T19:53:41.620Z,0.00
2018-08-03T19:54:41.638Z,0.00
2018-08-03T19:55:41.658Z,0.00
2018-08-03T19:56:41.678Z,0.00
2018-08-03T19:57:41.713Z,0.00
2018-08-03T19:58:41.787Z,0.00
2018-08-03T19:59:41.723Z,0.00
2018-08-03T20:00:41.742Z,0.00
2018-08-03T20:01:41.759Z,0.00
2018-08-03T20:02:41.775Z,0.00
2018-08-03T20:03:41.788Z,0.00
2018-08-03T20:04:41.806Z,0.00
2018-08-03T20:05:41.823Z,0.00
2018-08-03T20:06:41.880Z,0.00
2018-08-03T20:07:41.867Z,0.00
2018-08-03T20:08:41.879Z,0.00
2018-08-03T20:09:41.894Z,0.00
2018-08-03T20:10:41.917Z,0.00
2018-08-03T20:11:41.927Z,0.00
2018-08-03T20:12:41.947Z,0.00
2018-08-03T20:13:42.086Z,0.00
2018-08-03T20:14:41.980Z,0.00
2018-08-03T20:15:42.008Z,0.00
2018-08-03T20:16:42.017Z,0.00
2018-08-03T20:17:42.039Z,0.00
2018-08-03T20:18:42.079Z,0.00
2018-08-03T20:19:42.069Z,0.00
2018-08-03T20:20:42.081Z,0.00
2018-08-03T20:21:42.101Z,0.00
2018-08-03T20:22:42.118Z,0.00
2018-08-03T20:23:42.165Z,0.00
2018-08-03T20:24:42.155Z,0.00
2018-08-03T20:25:42.167Z,0.00
2018-08-03T20:26:42.183Z,0.00
2018-08-03T20:27:42.208Z,0.00
2018-08-03T20:28:42.217Z,0.00
2018-08-03T20:29:42.241Z,0.00
2018-08-03T20:30:42.267Z,0.00
2018-08-03T20:31:42.272Z,0.00
2018-08-03T20:32:42.296Z,0.00
2018-08-03T20:33:42.303Z,0.00
2018-08-03T20:34:42.318Z,0.00
2018-08-03T20:35:43.121Z,0.00
2018-08-03T20:36:42.348Z,0.00
2018-08-03T20:37:42.370Z,0.00
2018-08-03T20:38:42.408Z,0.00
2018-08-03T20:39:42.402Z,0.00
2018-08-03T20:40:42.417Z,0.00
2018-08-03T20:41:42.435Z,0.00
2018-08-03T20:42:42.450Z,0.00
2018-08-03T20:43:42.464Z,0.00
2018-08-03T20:44:42.525Z,0.00
2018-08-03T20:45:42.498Z,0.00
2018-08-03T20:46:42.523Z,0.00
2018-08-03T20:47:42.531Z,0.00
2018-08-03T20:48:42.560Z,0.00
2018-08-03T20:49:42.590Z,0.00
2018-08-03T20:50:42.579Z,0.00
2018-08-03T20:51:42.602Z,0.00
2018-08-03T20:52:42.611Z,0.00
2018-08-03T20:53:42.629Z,0.00
2018-08-03T20:54:42.644Z,0.00
2018-08-03T20:55:42.668Z,0.00
2018-08-03T20:56:42.677Z,0.00
2018-08-03T20:57:42.714Z,0.00
2018-08-03T20:58:42.709Z,0.00
2018-08-03T20:59:42.728Z,0.00
2018-08-03T21:00:42.751Z,0.00
2018-08-03T21:01:42.758Z,0.00
2018-08-03T21:02:42.775Z,0.00
2018-08-03T21:03:42.827Z,0.00
2018-08-03T21:04:42.808Z,0.00
2018-08-03T21:05:42.826Z,0.00
2018-08-03T21:06:42.839Z,0.00
2018-08-03T21:07:42.852Z,0.00
2018-08-03T21:08:42.909Z,0.00
2018-08-03T21:09:42.988Z,0.00
2018-08-03T21:10:42.945Z,0.00
2018-08-03T21:11:42.992Z,0.00
2018-08-03T21:12:43.074Z,0.00
2018-08-03T21:13:42.957Z,0.00
2018-08-03T21:14:42.970Z,0.00
2018-08-03T21:15:42.988Z,0.00
2018-08-03T21:16:43.005Z,0.00